sensor_id;sensor_type;location;lat;lon;timestamp;P1;durP1;ratioP1;P2;durP2;ratioP2
60436;SDS011;46289;51.992;4.498;2024-01-25T00:00:44;18.00;;;3.50;;
60436;SDS011;46289;51.992;4.498;2024-01-25T00:02:50;9.95;;;3.15;;
60436;SDS011;46289;51.992;4.498;2024-01-25T00:04:52;19.23;;;3.50;;
60436;SDS011;46289;51.992;4.498;2024-01-25T00:06:59;16.92;;;4.03;;
60436;SDS011;46289;51.992;4.498;2024-01-25T00:09:10;16.08;;;4.45;;
60436;SDS011;46289;51.992;4.498;2024-01-25T00:11:15;15.52;;;3.70;;
60436;SDS011;46289;51.992;4.498;2024-01-25T00:13:21;23.13;;;4.25;;
60436;SDS011;46289;51.992;4.498;2024-01-25T00:15:26;17.92;;;4.07;;
60436;SDS011;46289;51.992;4.498;2024-01-25T00:17:32;25.83;;;5.13;;
60436;SDS011;46289;51.992;4.498;2024-01-25T00:19:37;11.00;;;3.78;;
60436;SDS011;46289;51.992;4.498;2024-01-25T00:21:43;14.35;;;3.78;;
60436;SDS011;46289;51.992;4.498;2024-01-25T00:23:50;19.33;;;3.58;;
60436;SDS011;46289;51.992;4.498;2024-01-25T00:25:57;10.43;;;3.28;;
60436;SDS011;46289;51.992;4.498;2024-01-25T00:28:03;17.30;;;4.65;;
60436;SDS011;46289;51.992;4.498;2024-01-25T00:30:09;26.17;;;4.88;;
60436;SDS011;46289;51.992;4.498;2024-01-25T00:32:13;10.30;;;3.30;;
60436;SDS011;46289;51.992;4.498;2024-01-25T00:34:19;18.48;;;4.15;;
60436;SDS011;46289;51.992;4.498;2024-01-25T00:36:25;16.38;;;3.17;;
60436;SDS011;46289;51.992;4.498;2024-01-25T00:38:37;19.52;;;5.40;;
60436;SDS011;46289;51.992;4.498;2024-01-25T00:40:43;20.73;;;4.03;;
60436;SDS011;46289;51.992;4.498;2024-01-25T00:42:53;12.07;;;3.60;;
60436;SDS011;46289;51.992;4.498;2024-01-25T00:45:01;22.40;;;4.40;;
60436;SDS011;46289;51.992;4.498;2024-01-25T00:47:09;12.23;;;3.38;;
60436;SDS011;46289;51.992;4.498;2024-01-25T00:49:15;12.50;;;4.65;;
60436;SDS011;46289;51.992;4.498;2024-01-25T00:51:21;21.58;;;4.85;;
60436;SDS011;46289;51.992;4.498;2024-01-25T00:53:27;14.63;;;3.78;;
60436;SDS011;46289;51.992;4.498;2024-01-25T00:55:30;11.27;;;3.55;;
60436;SDS011;46289;51.992;4.498;2024-01-25T00:57:36;19.35;;;3.40;;
60436;SDS011;46289;51.992;4.498;2024-01-25T00:59:44;15.73;;;4.22;;
60436;SDS011;46289;51.992;4.498;2024-01-25T01:01:52;16.05;;;3.60;;
60436;SDS011;46289;51.992;4.498;2024-01-25T01:04:01;11.73;;;3.22;;
60436;SDS011;46289;51.992;4.498;2024-01-25T01:06:08;20.75;;;4.28;;
60436;SDS011;46289;51.992;4.498;2024-01-25T01:08:12;12.50;;;3.25;;
60436;SDS011;46289;51.992;4.498;2024-01-25T01:10:18;17.77;;;4.30;;
60436;SDS011;46289;51.992;4.498;2024-01-25T01:12:23;14.13;;;3.70;;
60436;SDS011;46289;51.992;4.498;2024-01-25T01:14:26;19.17;;;4.35;;
60436;SDS011;46289;51.992;4.498;2024-01-25T01:16:36;13.88;;;3.95;;
60436;SDS011;46289;51.992;4.498;2024-01-25T01:18:41;10.23;;;3.58;;
60436;SDS011;46289;51.992;4.498;2024-01-25T01:20:46;12.00;;;2.90;;
60436;SDS011;46289;51.992;4.498;2024-01-25T01:22:52;14.00;;;2.88;;
60436;SDS011;46289;51.992;4.498;2024-01-25T01:24:59;12.98;;;3.53;;
60436;SDS011;46289;51.992;4.498;2024-01-25T01:27:04;16.40;;;4.18;;
60436;SDS011;46289;51.992;4.498;2024-01-25T01:29:09;13.55;;;4.35;;
60436;SDS011;46289;51.992;4.498;2024-01-25T01:31:11;10.98;;;3.58;;
60436;SDS011;46289;51.992;4.498;2024-01-25T01:33:21;14.80;;;4.05;;
60436;SDS011;46289;51.992;4.498;2024-01-25T01:35:26;15.93;;;3.70;;
60436;SDS011;46289;51.992;4.498;2024-01-25T01:37:29;9.70;;;3.63;;
60436;SDS011;46289;51.992;4.498;2024-01-25T01:39:34;22.85;;;4.13;;
60436;SDS011;46289;51.992;4.498;2024-01-25T01:41:46;15.38;;;4.53;;
60436;SDS011;46289;51.992;4.498;2024-01-25T01:43:52;18.35;;;3.95;;
60436;SDS011;46289;51.992;4.498;2024-01-25T01:46:00;14.38;;;3.75;;
60436;SDS011;46289;51.992;4.498;2024-01-25T01:48:08;12.65;;;3.63;;
60436;SDS011;46289;51.992;4.498;2024-01-25T01:50:16;12.98;;;3.58;;
60436;SDS011;46289;51.992;4.498;2024-01-25T01:52:24;21.42;;;4.45;;
60436;SDS011;46289;51.992;4.498;2024-01-25T01:54:32;15.80;;;4.18;;
60436;SDS011;46289;51.992;4.498;2024-01-25T01:56:37;12.98;;;3.03;;
60436;SDS011;46289;51.992;4.498;2024-01-25T01:58:43;14.50;;;4.05;;
60436;SDS011;46289;51.992;4.498;2024-01-25T02:00:47;18.42;;;3.97;;
60436;SDS011;46289;51.992;4.498;2024-01-25T02:02:54;15.48;;;3.65;;
60436;SDS011;46289;51.992;4.498;2024-01-25T02:05:00;13.18;;;3.35;;
60436;SDS011;46289;51.992;4.498;2024-01-25T02:07:08;18.67;;;2.97;;
60436;SDS011;46289;51.992;4.498;2024-01-25T02:09:16;13.55;;;3.90;;
60436;SDS011;46289;51.992;4.498;2024-01-25T02:13:23;20.30;;;3.92;;
60436;SDS011;46289;51.992;4.498;2024-01-25T02:15:28;16.55;;;4.78;;
60436;SDS011;46289;51.992;4.498;2024-01-25T02:17:37;16.95;;;3.63;;
60436;SDS011;46289;51.992;4.498;2024-01-25T02:19:43;19.35;;;4.43;;
60436;SDS011;46289;51.992;4.498;2024-01-25T02:21:49;17.58;;;4.72;;
60436;SDS011;46289;51.992;4.498;2024-01-25T02:23:58;23.75;;;4.30;;
60436;SDS011;46289;51.992;4.498;2024-01-25T02:26:03;17.98;;;3.70;;
60436;SDS011;46289;51.992;4.498;2024-01-25T02:28:06;16.40;;;3.60;;
60436;SDS011;46289;51.992;4.498;2024-01-25T02:30:12;24.15;;;3.95;;
60436;SDS011;46289;51.992;4.498;2024-01-25T02:32:17;16.60;;;4.68;;
60436;SDS011;46289;51.992;4.498;2024-01-25T02:34:23;16.65;;;5.03;;
60436;SDS011;46289;51.992;4.498;2024-01-25T02:36:28;12.65;;;3.63;;
60436;SDS011;46289;51.992;4.498;2024-01-25T02:38:36;24.88;;;4.38;;
60436;SDS011;46289;51.992;4.498;2024-01-25T02:40:44;24.10;;;5.07;;
60436;SDS011;46289;51.992;4.498;2024-01-25T02:42:52;12.32;;;3.75;;
60436;SDS011;46289;51.992;4.498;2024-01-25T02:44:58;13.60;;;4.18;;
60436;SDS011;46289;51.992;4.498;2024-01-25T02:47:04;13.25;;;3.17;;
60436;SDS011;46289;51.992;4.498;2024-01-25T02:49:07;9.55;;;3.03;;
60436;SDS011;46289;51.992;4.498;2024-01-25T02:51:12;20.45;;;4.20;;
60436;SDS011;46289;51.992;4.498;2024-01-25T02:53:20;13.25;;;3.42;;
60436;SDS011;46289;51.992;4.498;2024-01-25T02:55:22;13.85;;;3.83;;
60436;SDS011;46289;51.992;4.498;2024-01-25T02:57:30;25.88;;;5.00;;
60436;SDS011;46289;51.992;4.498;2024-01-25T02:59:35;8.27;;;2.40;;
60436;SDS011;46289;51.992;4.498;2024-01-25T03:01:41;19.45;;;3.85;;
60436;SDS011;46289;51.992;4.498;2024-01-25T03:03:44;12.60;;;3.40;;
60436;SDS011;46289;51.992;4.498;2024-01-25T03:05:49;17.17;;;5.13;;
60436;SDS011;46289;51.992;4.498;2024-01-25T03:07:56;13.85;;;3.00;;
60436;SDS011;46289;51.992;4.498;2024-01-25T03:10:01;15.80;;;4.00;;
60436;SDS011;46289;51.992;4.498;2024-01-25T03:12:06;21.23;;;3.92;;
60436;SDS011;46289;51.992;4.498;2024-01-25T03:14:14;20.65;;;3.95;;
60436;SDS011;46289;51.992;4.498;2024-01-25T03:16:20;17.98;;;4.07;;
60436;SDS011;46289;51.992;4.498;2024-01-25T03:18:26;17.63;;;3.80;;
60436;SDS011;46289;51.992;4.498;2024-01-25T03:20:31;20.00;;;5.20;;
60436;SDS011;46289;51.992;4.498;2024-01-25T03:22:37;15.13;;;3.97;;
60436;SDS011;46289;51.992;4.498;2024-01-25T03:24:42;8.90;;;2.80;;
60436;SDS011;46289;51.992;4.498;2024-01-25T03:26:49;11.77;;;3.97;;
60436;SDS011;46289;51.992;4.498;2024-01-25T03:28:54;18.58;;;3.63;;
60436;SDS011;46289;51.992;4.498;2024-01-25T03:31:01;7.80;;;3.15;;
60436;SDS011;46289;51.992;4.498;2024-01-25T03:33:07;24.80;;;5.07;;
60436;SDS011;46289;51.992;4.498;2024-01-25T03:35:12;13.30;;;4.88;;
60436;SDS011;46289;51.992;4.498;2024-01-25T03:37:17;12.63;;;3.05;;
60436;SDS011;46289;51.992;4.498;2024-01-25T03:39:23;19.80;;;3.85;;
60436;SDS011;46289;51.992;4.498;2024-01-25T03:41:28;16.83;;;4.18;;
60436;SDS011;46289;51.992;4.498;2024-01-25T03:43:35;14.65;;;3.60;;
60436;SDS011;46289;51.992;4.498;2024-01-25T03:45:45;12.20;;;3.00;;
60436;SDS011;46289;51.992;4.498;2024-01-25T03:47:50;13.15;;;3.42;;
60436;SDS011;46289;51.992;4.498;2024-01-25T03:49:55;15.13;;;3.83;;
60436;SDS011;46289;51.992;4.498;2024-01-25T03:52:02;16.08;;;3.97;;
60436;SDS011;46289;51.992;4.498;2024-01-25T03:54:07;14.18;;;3.40;;
60436;SDS011;46289;51.992;4.498;2024-01-25T03:56:12;10.82;;;3.47;;
60436;SDS011;46289;51.992;4.498;2024-01-25T03:58:19;18.02;;;3.03;;
60436;SDS011;46289;51.992;4.498;2024-01-25T04:00:23;10.02;;;3.03;;
60436;SDS011;46289;51.992;4.498;2024-01-25T04:02:29;18.23;;;3.15;;
60436;SDS011;46289;51.992;4.498;2024-01-25T04:04:37;12.90;;;3.25;;
60436;SDS011;46289;51.992;4.498;2024-01-25T04:06:42;15.68;;;4.10;;
60436;SDS011;46289;51.992;4.498;2024-01-25T04:08:50;14.25;;;4.22;;
60436;SDS011;46289;51.992;4.498;2024-01-25T04:10:56;14.90;;;3.50;;
60436;SDS011;46289;51.992;4.498;2024-01-25T04:13:01;10.60;;;4.57;;
60436;SDS011;46289;51.992;4.498;2024-01-25T04:15:06;14.18;;;3.72;;
60436;SDS011;46289;51.992;4.498;2024-01-25T04:17:11;14.80;;;3.90;;
60436;SDS011;46289;51.992;4.498;2024-01-25T04:19:16;10.52;;;3.58;;
60436;SDS011;46289;51.992;4.498;2024-01-25T04:21:24;12.27;;;3.97;;
60436;SDS011;46289;51.992;4.498;2024-01-25T04:23:29;20.75;;;4.60;;
60436;SDS011;46289;51.992;4.498;2024-01-25T04:25:37;10.82;;;3.28;;
60436;SDS011;46289;51.992;4.498;2024-01-25T04:27:42;14.75;;;4.43;;
60436;SDS011;46289;51.992;4.498;2024-01-25T04:29:53;12.98;;;3.70;;
60436;SDS011;46289;51.992;4.498;2024-01-25T04:31:56;11.65;;;3.58;;
60436;SDS011;46289;51.992;4.498;2024-01-25T04:34:01;14.90;;;3.10;;
60436;SDS011;46289;51.992;4.498;2024-01-25T04:36:08;9.07;;;3.60;;
60436;SDS011;46289;51.992;4.498;2024-01-25T04:38:16;13.95;;;3.10;;
60436;SDS011;46289;51.992;4.498;2024-01-25T04:40:22;16.20;;;3.42;;
60436;SDS011;46289;51.992;4.498;2024-01-25T04:42:29;16.88;;;3.75;;
60436;SDS011;46289;51.992;4.498;2024-01-25T04:44:35;14.05;;;3.83;;
60436;SDS011;46289;51.992;4.498;2024-01-25T04:46:41;14.68;;;3.15;;
60436;SDS011;46289;51.992;4.498;2024-01-25T04:48:46;18.20;;;5.07;;
60436;SDS011;46289;51.992;4.498;2024-01-25T04:50:52;11.32;;;3.15;;
60436;SDS011;46289;51.992;4.498;2024-01-25T04:52:57;17.58;;;3.97;;
60436;SDS011;46289;51.992;4.498;2024-01-25T04:55:06;28.17;;;4.40;;
60436;SDS011;46289;51.992;4.498;2024-01-25T04:57:12;7.63;;;4.18;;
60436;SDS011;46289;51.992;4.498;2024-01-25T04:59:17;16.52;;;3.85;;
60436;SDS011;46289;51.992;4.498;2024-01-25T05:01:22;13.38;;;4.63;;
60436;SDS011;46289;51.992;4.498;2024-01-25T05:03:27;13.90;;;3.22;;
60436;SDS011;46289;51.992;4.498;2024-01-25T05:05:31;20.77;;;5.35;;
60436;SDS011;46289;51.992;4.498;2024-01-25T05:07:36;15.05;;;4.13;;
60436;SDS011;46289;51.992;4.498;2024-01-25T05:09:41;13.95;;;3.75;;
60436;SDS011;46289;51.992;4.498;2024-01-25T05:11:49;14.15;;;3.08;;
60436;SDS011;46289;51.992;4.498;2024-01-25T05:13:54;10.63;;;4.43;;
60436;SDS011;46289;51.992;4.498;2024-01-25T05:15:59;20.77;;;3.83;;
60436;SDS011;46289;51.992;4.498;2024-01-25T05:18:04;19.88;;;6.93;;
60436;SDS011;46289;51.992;4.498;2024-01-25T05:20:11;11.93;;;3.55;;
60436;SDS011;46289;51.992;4.498;2024-01-25T05:22:21;16.08;;;5.05;;
60436;SDS011;46289;51.992;4.498;2024-01-25T05:24:27;25.48;;;3.95;;
60436;SDS011;46289;51.992;4.498;2024-01-25T05:26:32;16.25;;;4.65;;
60436;SDS011;46289;51.992;4.498;2024-01-25T05:28:41;13.23;;;3.60;;
60436;SDS011;46289;51.992;4.498;2024-01-25T05:30:44;15.73;;;4.25;;
60436;SDS011;46289;51.992;4.498;2024-01-25T05:32:49;13.38;;;4.53;;
60436;SDS011;46289;51.992;4.498;2024-01-25T05:34:56;8.15;;;3.30;;
60436;SDS011;46289;51.992;4.498;2024-01-25T05:37:02;10.23;;;3.50;;
60436;SDS011;46289;51.992;4.498;2024-01-25T05:39:09;18.52;;;4.97;;
60436;SDS011;46289;51.992;4.498;2024-01-25T05:41:14;20.35;;;4.28;;
60436;SDS011;46289;51.992;4.498;2024-01-25T05:43:19;15.90;;;4.20;;
60436;SDS011;46289;51.992;4.498;2024-01-25T05:45:24;8.35;;;3.33;;
60436;SDS011;46289;51.992;4.498;2024-01-25T05:47:30;15.85;;;3.90;;
60436;SDS011;46289;51.992;4.498;2024-01-25T05:49:36;14.13;;;4.38;;
60436;SDS011;46289;51.992;4.498;2024-01-25T05:51:41;19.38;;;4.53;;
60436;SDS011;46289;51.992;4.498;2024-01-25T05:53:46;12.93;;;4.60;;
60436;SDS011;46289;51.992;4.498;2024-01-25T05:55:51;8.13;;;3.10;;
60436;SDS011;46289;51.992;4.498;2024-01-25T05:57:56;10.93;;;3.30;;
60436;SDS011;46289;51.992;4.498;2024-01-25T06:00:05;19.75;;;5.15;;
60436;SDS011;46289;51.992;4.498;2024-01-25T06:02:15;16.83;;;5.07;;
60436;SDS011;46289;51.992;4.498;2024-01-25T06:04:20;18.92;;;4.57;;
60436;SDS011;46289;51.992;4.498;2024-01-25T06:06:26;17.17;;;5.28;;
60436;SDS011;46289;51.992;4.498;2024-01-25T06:08:31;16.25;;;5.60;;
60436;SDS011;46289;51.992;4.498;2024-01-25T06:10:39;15.82;;;4.03;;
60436;SDS011;46289;51.992;4.498;2024-01-25T06:12:45;12.93;;;4.30;;
60436;SDS011;46289;51.992;4.498;2024-01-25T06:14:47;15.05;;;4.43;;
60436;SDS011;46289;51.992;4.498;2024-01-25T06:16:55;14.30;;;5.15;;
60436;SDS011;46289;51.992;4.498;2024-01-25T06:19:03;16.25;;;4.20;;
60436;SDS011;46289;51.992;4.498;2024-01-25T06:21:09;22.55;;;5.55;;
60436;SDS011;46289;51.992;4.498;2024-01-25T06:23:14;11.93;;;5.03;;
60436;SDS011;46289;51.992;4.498;2024-01-25T06:25:20;18.77;;;5.85;;
60436;SDS011;46289;51.992;4.498;2024-01-25T06:27:25;19.17;;;5.60;;
60436;SDS011;46289;51.992;4.498;2024-01-25T06:29:30;17.75;;;4.60;;
60436;SDS011;46289;51.992;4.498;2024-01-25T06:31:39;16.30;;;4.68;;
60436;SDS011;46289;51.992;4.498;2024-01-25T06:33:45;23.20;;;6.22;;
60436;SDS011;46289;51.992;4.498;2024-01-25T06:35:56;19.88;;;6.35;;
60436;SDS011;46289;51.992;4.498;2024-01-25T06:38:02;22.25;;;6.20;;
60436;SDS011;46289;51.992;4.498;2024-01-25T06:40:07;8.43;;;3.75;;
60436;SDS011;46289;51.992;4.498;2024-01-25T06:42:13;14.43;;;5.05;;
60436;SDS011;46289;51.992;4.498;2024-01-25T06:44:18;14.45;;;5.25;;
60436;SDS011;46289;51.992;4.498;2024-01-25T06:46:24;15.30;;;5.05;;
60436;SDS011;46289;51.992;4.498;2024-01-25T06:48:32;14.02;;;5.38;;
60436;SDS011;46289;51.992;4.498;2024-01-25T06:50:36;13.82;;;4.97;;
60436;SDS011;46289;51.992;4.498;2024-01-25T06:52:44;27.00;;;5.72;;
60436;SDS011;46289;51.992;4.498;2024-01-25T06:54:47;14.07;;;4.72;;
60436;SDS011;46289;51.992;4.498;2024-01-25T06:56:52;9.98;;;5.00;;
60436;SDS011;46289;51.992;4.498;2024-01-25T06:58:58;12.00;;;4.90;;
60436;SDS011;46289;51.992;4.498;2024-01-25T07:01:04;20.92;;;6.70;;
60436;SDS011;46289;51.992;4.498;2024-01-25T07:03:08;14.23;;;5.40;;
60436;SDS011;46289;51.992;4.498;2024-01-25T07:05:13;20.45;;;4.88;;
60436;SDS011;46289;51.992;4.498;2024-01-25T07:07:19;13.38;;;5.43;;
60436;SDS011;46289;51.992;4.498;2024-01-25T07:09:27;14.15;;;4.75;;
60436;SDS011;46289;51.992;4.498;2024-01-25T07:11:35;20.98;;;6.13;;
60436;SDS011;46289;51.992;4.498;2024-01-25T07:13:40;17.63;;;5.60;;
60436;SDS011;46289;51.992;4.498;2024-01-25T07:15:46;19.08;;;5.78;;
60436;SDS011;46289;51.992;4.498;2024-01-25T07:17:52;18.83;;;5.43;;
60436;SDS011;46289;51.992;4.498;2024-01-25T07:19:57;28.02;;;6.72;;
60436;SDS011;46289;51.992;4.498;2024-01-25T07:22:05;15.75;;;5.43;;
60436;SDS011;46289;51.992;4.498;2024-01-25T07:24:11;25.48;;;6.10;;
60436;SDS011;46289;51.992;4.498;2024-01-25T07:26:19;20.80;;;6.55;;
60436;SDS011;46289;51.992;4.498;2024-01-25T07:28:24;20.88;;;5.47;;
60436;SDS011;46289;51.992;4.498;2024-01-25T07:30:31;19.45;;;5.88;;
60436;SDS011;46289;51.992;4.498;2024-01-25T07:32:36;22.52;;;7.15;;
60436;SDS011;46289;51.992;4.498;2024-01-25T07:34:39;20.45;;;5.93;;
60436;SDS011;46289;51.992;4.498;2024-01-25T07:36:44;15.70;;;5.05;;
60436;SDS011;46289;51.992;4.498;2024-01-25T07:38:47;16.67;;;6.00;;
60436;SDS011;46289;51.992;4.498;2024-01-25T07:40:53;13.38;;;5.10;;
60436;SDS011;46289;51.992;4.498;2024-01-25T07:43:03;14.10;;;5.00;;
60436;SDS011;46289;51.992;4.498;2024-01-25T07:45:07;12.25;;;4.65;;
60436;SDS011;46289;51.992;4.498;2024-01-25T07:47:17;24.75;;;4.70;;
60436;SDS011;46289;51.992;4.498;2024-01-25T07:49:21;12.57;;;4.57;;
60436;SDS011;46289;51.992;4.498;2024-01-25T07:51:27;17.83;;;5.35;;
60436;SDS011;46289;51.992;4.498;2024-01-25T07:53:30;17.40;;;5.40;;
60436;SDS011;46289;51.992;4.498;2024-01-25T07:55:38;21.48;;;5.38;;
60436;SDS011;46289;51.992;4.498;2024-01-25T07:57:43;19.67;;;6.57;;
60436;SDS011;46289;51.992;4.498;2024-01-25T07:59:51;16.98;;;6.10;;
60436;SDS011;46289;51.992;4.498;2024-01-25T08:01:59;17.05;;;6.15;;
60436;SDS011;46289;51.992;4.498;2024-01-25T08:04:04;23.77;;;5.80;;
60436;SDS011;46289;51.992;4.498;2024-01-25T08:06:10;20.88;;;5.90;;
60436;SDS011;46289;51.992;4.498;2024-01-25T08:10:18;22.38;;;5.90;;
60436;SDS011;46289;51.992;4.498;2024-01-25T08:12:25;25.42;;;5.40;;
60436;SDS011;46289;51.992;4.498;2024-01-25T08:14:33;18.00;;;4.78;;
60436;SDS011;46289;51.992;4.498;2024-01-25T08:16:41;22.55;;;5.70;;
60436;SDS011;46289;51.992;4.498;2024-01-25T08:18:46;16.88;;;5.45;;
60436;SDS011;46289;51.992;4.498;2024-01-25T08:20:52;26.38;;;5.43;;
60436;SDS011;46289;51.992;4.498;2024-01-25T08:22:54;9.68;;;4.55;;
60436;SDS011;46289;51.992;4.498;2024-01-25T08:25:00;17.08;;;5.13;;
60436;SDS011;46289;51.992;4.498;2024-01-25T08:27:06;18.38;;;5.00;;
60436;SDS011;46289;51.992;4.498;2024-01-25T08:29:16;15.85;;;5.80;;
60436;SDS011;46289;51.992;4.498;2024-01-25T08:31:21;25.85;;;6.07;;
60436;SDS011;46289;51.992;4.498;2024-01-25T08:33:29;14.95;;;5.82;;
60436;SDS011;46289;51.992;4.498;2024-01-25T08:35:35;15.65;;;5.22;;
60436;SDS011;46289;51.992;4.498;2024-01-25T08:37:40;16.33;;;4.70;;
60436;SDS011;46289;51.992;4.498;2024-01-25T08:39:46;21.80;;;5.00;;
60436;SDS011;46289;51.992;4.498;2024-01-25T08:41:52;15.10;;;6.50;;
60436;SDS011;46289;51.992;4.498;2024-01-25T08:44:02;19.20;;;5.47;;
60436;SDS011;46289;51.992;4.498;2024-01-25T08:46:07;19.90;;;5.50;;
60436;SDS011;46289;51.992;4.498;2024-01-25T08:48:12;11.55;;;5.00;;
60436;SDS011;46289;51.992;4.498;2024-01-25T08:50:23;12.38;;;5.03;;
60436;SDS011;46289;51.992;4.498;2024-01-25T08:52:28;18.48;;;6.38;;
60436;SDS011;46289;51.992;4.498;2024-01-25T08:54:34;12.13;;;5.88;;
60436;SDS011;46289;51.992;4.498;2024-01-25T08:56:39;17.75;;;5.90;;
60436;SDS011;46289;51.992;4.498;2024-01-25T08:58:44;18.42;;;6.00;;
60436;SDS011;46289;51.992;4.498;2024-01-25T09:00:50;11.65;;;5.32;;
60436;SDS011;46289;51.992;4.498;2024-01-25T09:02:55;19.25;;;5.53;;
60436;SDS011;46289;51.992;4.498;2024-01-25T09:05:00;16.90;;;6.57;;
60436;SDS011;46289;51.992;4.498;2024-01-25T09:07:12;21.80;;;6.03;;
60436;SDS011;46289;51.992;4.498;2024-01-25T09:09:18;13.65;;;5.90;;
60436;SDS011;46289;51.992;4.498;2024-01-25T09:11:23;17.17;;;6.18;;
60436;SDS011;46289;51.992;4.498;2024-01-25T09:13:28;19.08;;;5.63;;
60436;SDS011;46289;51.992;4.498;2024-01-25T09:15:45;17.27;;;5.68;;
60436;SDS011;46289;51.992;4.498;2024-01-25T09:17:51;13.60;;;4.85;;
60436;SDS011;46289;51.992;4.498;2024-01-25T09:19:57;12.23;;;5.47;;
60436;SDS011;46289;51.992;4.498;2024-01-25T09:22:06;16.30;;;6.13;;
60436;SDS011;46289;51.992;4.498;2024-01-25T09:24:14;18.73;;;7.07;;
60436;SDS011;46289;51.992;4.498;2024-01-25T09:26:19;22.25;;;5.50;;
60436;SDS011;46289;51.992;4.498;2024-01-25T09:28:24;22.85;;;7.45;;
60436;SDS011;46289;51.992;4.498;2024-01-25T09:30:30;26.27;;;6.72;;
60436;SDS011;46289;51.992;4.498;2024-01-25T09:32:35;22.35;;;6.40;;
60436;SDS011;46289;51.992;4.498;2024-01-25T09:34:40;26.45;;;7.45;;
60436;SDS011;46289;51.992;4.498;2024-01-25T09:36:48;20.30;;;6.97;;
60436;SDS011;46289;51.992;4.498;2024-01-25T09:38:54;24.73;;;6.72;;
60436;SDS011;46289;51.992;4.498;2024-01-25T09:41:03;16.40;;;5.13;;
60436;SDS011;46289;51.992;4.498;2024-01-25T09:43:08;26.10;;;6.93;;
60436;SDS011;46289;51.992;4.498;2024-01-25T09:45:15;18.98;;;6.10;;
60436;SDS011;46289;51.992;4.498;2024-01-25T09:47:22;22.02;;;5.18;;
60436;SDS011;46289;51.992;4.498;2024-01-25T09:49:25;17.58;;;5.32;;
60436;SDS011;46289;51.992;4.498;2024-01-25T09:51:31;27.45;;;6.50;;
60436;SDS011;46289;51.992;4.498;2024-01-25T09:53:42;22.02;;;5.35;;
60436;SDS011;46289;51.992;4.498;2024-01-25T09:55:47;31.77;;;7.43;;
60436;SDS011;46289;51.992;4.498;2024-01-25T09:58:03;26.80;;;5.50;;
60436;SDS011;46289;51.992;4.498;2024-01-25T10:00:10;18.45;;;5.13;;
60436;SDS011;46289;51.992;4.498;2024-01-25T10:02:17;20.25;;;4.82;;
60436;SDS011;46289;51.992;4.498;2024-01-25T10:04:22;13.38;;;5.53;;
60436;SDS011;46289;51.992;4.498;2024-01-25T10:06:28;16.30;;;6.30;;
60436;SDS011;46289;51.992;4.498;2024-01-25T10:08:31;18.10;;;5.13;;
60436;SDS011;46289;51.992;4.498;2024-01-25T10:10:36;22.48;;;7.95;;
60436;SDS011;46289;51.992;4.498;2024-01-25T10:12:41;17.98;;;5.93;;
60436;SDS011;46289;51.992;4.498;2024-01-25T10:14:47;22.75;;;6.38;;
60436;SDS011;46289;51.992;4.498;2024-01-25T10:16:53;21.85;;;6.35;;
60436;SDS011;46289;51.992;4.498;2024-01-25T10:19:00;17.63;;;6.03;;
60436;SDS011;46289;51.992;4.498;2024-01-25T10:21:06;29.15;;;6.78;;
60436;SDS011;46289;51.992;4.498;2024-01-25T10:23:12;25.13;;;6.25;;
60436;SDS011;46289;51.992;4.498;2024-01-25T10:25:19;21.38;;;6.32;;
60436;SDS011;46289;51.992;4.498;2024-01-25T10:27:25;17.17;;;6.10;;
60436;SDS011;46289;51.992;4.498;2024-01-25T10:29:30;24.50;;;6.82;;
60436;SDS011;46289;51.992;4.498;2024-01-25T10:31:38;19.25;;;5.72;;
60436;SDS011;46289;51.992;4.498;2024-01-25T10:33:46;18.38;;;6.80;;
60436;SDS011;46289;51.992;4.498;2024-01-25T10:35:56;23.30;;;6.70;;
60436;SDS011;46289;51.992;4.498;2024-01-25T10:38:04;18.17;;;5.53;;
60436;SDS011;46289;51.992;4.498;2024-01-25T10:40:10;14.27;;;6.30;;
60436;SDS011;46289;51.992;4.498;2024-01-25T10:42:18;20.73;;;5.97;;
60436;SDS011;46289;51.992;4.498;2024-01-25T10:44:23;26.15;;;7.00;;
60436;SDS011;46289;51.992;4.498;2024-01-25T10:46:36;29.77;;;7.10;;
60436;SDS011;46289;51.992;4.498;2024-01-25T10:48:45;26.35;;;8.65;;
60436;SDS011;46289;51.992;4.498;2024-01-25T10:50:53;23.92;;;6.43;;
60436;SDS011;46289;51.992;4.498;2024-01-25T10:52:58;18.27;;;5.45;;
60436;SDS011;46289;51.992;4.498;2024-01-25T10:55:06;18.45;;;8.00;;
60436;SDS011;46289;51.992;4.498;2024-01-25T10:57:13;21.13;;;7.35;;
60436;SDS011;46289;51.992;4.498;2024-01-25T10:59:18;22.20;;;6.97;;
60436;SDS011;46289;51.992;4.498;2024-01-25T11:01:20;17.52;;;5.68;;
60436;SDS011;46289;51.992;4.498;2024-01-25T11:03:30;24.40;;;7.88;;
60436;SDS011;46289;51.992;4.498;2024-01-25T11:05:35;20.77;;;6.63;;
60436;SDS011;46289;51.992;4.498;2024-01-25T11:07:41;23.70;;;6.55;;
60436;SDS011;46289;51.992;4.498;2024-01-25T11:09:50;20.40;;;6.72;;
60436;SDS011;46289;51.992;4.498;2024-01-25T11:11:58;23.50;;;6.40;;
60436;SDS011;46289;51.992;4.498;2024-01-25T11:14:03;29.05;;;7.55;;
60436;SDS011;46289;51.992;4.498;2024-01-25T11:16:12;27.45;;;7.53;;
60436;SDS011;46289;51.992;4.498;2024-01-25T11:18:16;22.80;;;8.60;;
60436;SDS011;46289;51.992;4.498;2024-01-25T11:20:27;15.77;;;7.38;;
60436;SDS011;46289;51.992;4.498;2024-01-25T11:22:34;29.13;;;8.27;;
60436;SDS011;46289;51.992;4.498;2024-01-25T11:24:40;34.85;;;8.90;;
60436;SDS011;46289;51.992;4.498;2024-01-25T11:26:45;28.45;;;8.60;;
60436;SDS011;46289;51.992;4.498;2024-01-25T11:28:51;26.77;;;7.50;;
60436;SDS011;46289;51.992;4.498;2024-01-25T11:30:56;27.92;;;7.80;;
60436;SDS011;46289;51.992;4.498;2024-01-25T11:33:04;19.35;;;7.38;;
60436;SDS011;46289;51.992;4.498;2024-01-25T11:35:12;31.42;;;7.82;;
60436;SDS011;46289;51.992;4.498;2024-01-25T11:37:21;24.10;;;7.13;;
60436;SDS011;46289;51.992;4.498;2024-01-25T11:39:27;33.58;;;7.78;;
60436;SDS011;46289;51.992;4.498;2024-01-25T11:41:32;30.80;;;7.78;;
60436;SDS011;46289;51.992;4.498;2024-01-25T11:43:40;35.45;;;8.15;;
60436;SDS011;46289;51.992;4.498;2024-01-25T11:45:46;21.15;;;7.88;;
60436;SDS011;46289;51.992;4.498;2024-01-25T11:47:52;33.35;;;8.68;;
60436;SDS011;46289;51.992;4.498;2024-01-25T11:49:55;34.88;;;8.30;;
60436;SDS011;46289;51.992;4.498;2024-01-25T11:52:00;28.95;;;7.55;;
60436;SDS011;46289;51.992;4.498;2024-01-25T11:54:08;38.50;;;7.65;;
60436;SDS011;46289;51.992;4.498;2024-01-25T11:56:14;27.65;;;6.70;;
60436;SDS011;46289;51.992;4.498;2024-01-25T11:58:23;26.50;;;7.53;;
60436;SDS011;46289;51.992;4.498;2024-01-25T12:00:35;26.13;;;8.10;;
60436;SDS011;46289;51.992;4.498;2024-01-25T12:02:40;23.25;;;6.05;;
60436;SDS011;46289;51.992;4.498;2024-01-25T12:04:51;19.20;;;5.93;;
60436;SDS011;46289;51.992;4.498;2024-01-25T12:06:57;25.17;;;7.03;;
60436;SDS011;46289;51.992;4.498;2024-01-25T12:09:09;26.40;;;6.95;;
60436;SDS011;46289;51.992;4.498;2024-01-25T12:11:15;29.10;;;6.82;;
60436;SDS011;46289;51.992;4.498;2024-01-25T12:13:20;22.73;;;8.20;;
60436;SDS011;46289;51.992;4.498;2024-01-25T12:15:26;18.23;;;5.95;;
60436;SDS011;46289;51.992;4.498;2024-01-25T12:17:31;25.67;;;6.80;;
60436;SDS011;46289;51.992;4.498;2024-01-25T12:19:38;19.30;;;6.28;;
60436;SDS011;46289;51.992;4.498;2024-01-25T12:21:44;17.50;;;5.40;;
60436;SDS011;46289;51.992;4.498;2024-01-25T12:23:52;24.02;;;6.30;;
60436;SDS011;46289;51.992;4.498;2024-01-25T12:26:01;22.20;;;5.85;;
60436;SDS011;46289;51.992;4.498;2024-01-25T12:28:07;25.73;;;7.18;;
60436;SDS011;46289;51.992;4.498;2024-01-25T12:30:14;19.17;;;6.13;;
60436;SDS011;46289;51.992;4.498;2024-01-25T12:32:19;16.00;;;5.85;;
60436;SDS011;46289;51.992;4.498;2024-01-25T12:34:25;27.95;;;7.82;;